Metar Aviation Weather Data EGGD Bristol International

17°C Temp
17°C Dewpoint
100% Humidity
Temperature
11 KM/H
7 MPH
6 KTS
230°
South West

Wind Speed
Partly Cloudy
Conditions
Pressure 1021 (hPa) - 30.15 (in)
Visibility 6.2 (mi) - 10.0 (km)

Current Conditions
EGGD
Bristol International
Metar :EGGD 182150Z AUTO 23006KT 9999 FEW002 BKN005 OVC013 17/17 Q1021
Sat 18th August 22:50 pm

Bristol International
  Metar Aviation API Data Provided by https://www.checkwx.com/ PHP scripts by weather34.com ©2018